Time;durP1;ratioP1;P1;durP2;ratioP2;P2;SDS_P1;SDS_P2;PMS_P1;PMS_P2;Temp;Humidity;BMP_temperature;BMP_pressure;BME280_temperature;BME280_humidity;BME280_pressure;Samples;Min_cycle;Max_cycle;Signal;HPM_P1;HPM_P2
2021/10/13 00:00:17;;;;;;;1.38;1.20;;;;;;;10.12;100.00;98332.50;5031102;28;20478;-73
2021/10/13 00:02:43;;;;;;;0.00;0.00;;;;;;;10.18;100.00;98344.72;5031137;28;20022;-71
2021/10/13 00:05:09;;;;;;;0.00;0.00;;;;;;;10.08;100.00;98337.63;5031214;28;20033;-73
2021/10/13 00:07:35;;;;;;;0.00;0.00;;;;;;;10.16;100.00;98346.09;5046984;28;20036;-71
2021/10/13 00:10:01;;;;;;;0.30;0.30;;;;;;;10.06;100.00;98336.34;5031345;28;20037;-72
2021/10/13 00:12:27;;;;;;;0.00;0.00;;;;;;;10.15;100.00;98347.94;5031651;28;20033;-72
2021/10/13 00:14:53;;;;;;;0.00;0.00;;;;;;;10.15;100.00;98353.28;5031250;28;20393;-71
2021/10/13 00:17:19;;;;;;;0.00;0.00;;;;;;;10.10;100.00;98346.13;5030338;28;20034;-72
2021/10/13 00:19:45;;;;;;;0.08;0.08;;;;;;;10.08;100.00;98340.31;5030065;28;20465;-73
2021/10/13 00:22:11;;;;;;;0.00;0.00;;;;;;;10.05;100.00;98332.84;5030253;28;20430;-72
2021/10/13 00:24:37;;;;;;;0.00;0.00;;;;;;;10.08;100.00;98336.81;5031191;28;20033;-74
2021/10/13 00:27:03;;;;;;;0.00;0.00;;;;;;;10.13;99.91;98341.31;5031774;28;20025;-73
2021/10/13 00:29:28;;;;;;;0.00;0.00;;;;;;;10.04;99.46;98333.16;5031558;28;20397;-73
2021/10/13 00:31:54;;;;;;;0.00;0.00;;;;;;;10.07;99.64;98340.56;5031028;28;20061;-75
2021/10/13 00:34:19;;;;;;;0.00;0.00;;;;;;;10.03;99.02;98334.22;5031419;28;20037;-75
2021/10/13 00:36:45;;;;;;;0.10;0.10;;;;;;;10.06;98.74;98336.34;5030223;28;20060;-71
2021/10/13 00:39:11;;;;;;;0.00;0.00;;;;;;;10.00;98.56;98337.50;5031536;28;20469;-71
2021/10/13 00:41:37;;;;;;;0.00;0.00;;;;;;;10.05;98.07;98342.75;5031628;28;20129;-70
2021/10/13 00:44:02;;;;;;;0.00;0.00;;;;;;;9.95;97.90;98341.03;5031513;28;20022;-73
2021/10/13 00:46:27;;;;;;;0.00;0.00;;;;;;;9.96;98.58;98334.63;5028003;28;20044;-72
2021/10/13 00:48:53;;;;;;;0.10;0.10;;;;;;;10.01;98.16;98339.06;5030978;28;20104;-70
2021/10/13 00:51:19;;;;;;;0.00;0.00;;;;;;;10.00;97.58;98354.31;5028710;28;20026;-71
2021/10/13 00:53:44;;;;;;;0.30;0.30;;;;;;;10.00;97.44;98348.19;5030924;28;20060;-71
2021/10/13 00:56:10;;;;;;;0.00;0.00;;;;;;;9.95;97.72;98349.03;5030772;28;20175;-71
2021/10/13 00:58:35;;;;;;;0.00;0.00;;;;;;;9.97;97.75;98351.41;5030682;28;20489;-72
2021/10/13 01:01:09;;;;;;;0.00;0.00;;;;;;;9.93;96.22;98346.66;5031054;28;20089;-71
2021/10/13 01:03:42;;;;;;;0.10;0.10;;;;;;;9.88;96.76;98343.28;5031425;28;20489;-72
2021/10/13 01:06:32;;;;;;;0.05;0.05;;;;;;;9.85;96.42;98338.50;5030816;28;20127;-71
2021/10/13 01:09:23;;;;;;;0.00;0.00;;;;;;;9.87;96.13;98355.03;5030321;28;20104;-71
2021/10/13 01:12:11;;;;;;;0.60;0.55;;;;;;;9.83;95.95;98352.13;5030274;28;20128;-73
2021/10/13 01:14:46;;;;;;;;;;;;;;;9.85;96.16;98352.66;5031312;28;20025;-72
2021/10/13 01:17:37;;;;;;;0.00;0.00;;;;;;;9.82;95.53;98353.22;5031003;28;20336;-70
2021/10/13 01:20:24;;;;;;;0.15;0.15;;;;;;;9.81;95.79;98356.97;5028842;28;20133;-72
2021/10/13 01:23:06;;;;;;;0.00;0.00;;;;;;;9.71;95.72;98347.22;5029819;28;20025;-72
2021/10/13 01:26:16;;;;;;;0.00;0.00;;;;;;;9.78;95.87;98360.22;5023145;28;20520;-72
2021/10/13 01:28:44;;;;;;;0.00;0.00;;;;;;;9.68;95.77;98345.13;5030787;28;20478;-73
2021/10/13 01:31:16;;;;;;;0.03;0.03;;;;;;;9.70;95.01;98355.53;5028681;28;20112;-72
2021/10/13 01:34:06;;;;;;;0.20;0.20;;;;;;;9.74;95.80;98365.34;5030203;28;20033;-72
2021/10/13 01:36:39;;;;;;;0.00;0.00;;;;;;;9.70;95.74;98355.53;5018992;28;20084;-72
2021/10/13 01:39:06;;;;;;;0.08;0.08;;;;;;;9.71;95.59;98365.13;5030124;28;20036;-72
2021/10/13 01:41:35;;;;;;;0.52;0.52;;;;;;;9.68;95.51;98365.69;5030144;28;20050;-72
2021/10/13 01:44:02;;;;;;;0.20;0.20;;;;;;;9.67;95.23;98359.56;5030105;28;20383;-74
2021/10/13 01:46:29;;;;;;;0.20;0.20;;;;;;;9.60;95.52;98343.88;5024750;28;20030;-72
2021/10/13 01:48:57;;;;;;;0.00;0.00;;;;;;;9.64;95.22;98352.09;5030193;28;20040;-72
2021/10/13 01:51:26;;;;;;;0.00;0.00;;;;;;;9.63;95.35;98358.56;5030122;28;20033;-72
2021/10/13 01:53:52;;;;;;;0.00;0.00;;;;;;;9.69;95.13;98373.44;5030353;28;20052;-73
2021/10/13 01:56:19;;;;;;;0.10;0.10;;;;;;;9.67;94.78;98361.44;5030677;28;20037;-73
2021/10/13 01:58:47;;;;;;;0.50;0.50;;;;;;;9.54;94.75;98346.91;5030352;28;20033;-72
2021/10/13 02:01:16;;;;;;;0.47;0.47;;;;;;;9.66;94.59;98365.19;5030094;28;20076;-73
2021/10/13 02:03:44;;;;;;;0.00;0.00;;;;;;;9.51;94.38;98350.94;5031914;28;20029;-71
2021/10/13 02:06:10;;;;;;;0.08;0.08;;;;;;;9.65;94.20;98372.38;5033375;28;20448;-72
2021/10/13 02:08:38;;;;;;;0.55;0.50;;;;;;;9.55;94.58;98365.31;5033131;28;20025;-71
2021/10/13 02:11:05;;;;;;;1.30;1.20;;;;;;;9.61;94.27;98369.50;5033814;28;20022;-73
2021/10/13 02:13:33;;;;;;;0.00;0.00;;;;;;;9.58;94.47;98366.59;5031795;28;20048;-72
2021/10/13 02:15:59;;;;;;;0.22;0.22;;;;;;;9.63;94.15;98371.09;5034131;28;20033;-71
2021/10/13 02:18:27;;;;;;;0.30;0.30;;;;;;;9.65;93.84;98377.72;5033647;28;20034;-73
2021/10/13 02:20:55;;;;;;;0.10;0.10;;;;;;;9.68;93.85;98384.38;5033989;28;20041;-71
2021/10/13 02:23:24;;;;;;;0.05;0.05;;;;;;;9.64;93.77;98386.81;5034029;28;20035;-72
2021/10/13 02:25:51;;;;;;;;;;;;;;;9.66;93.22;98392.66;5034480;28;20044;-72
2021/10/13 02:28:40;;;;;;;0.08;0.08;;;;;;;9.62;93.60;98386.31;5033165;28;19912;-72
2021/10/13 02:31:06;;;;;;;0.00;0.00;;;;;;;9.64;93.40;98388.69;5032657;28;20405;-73
2021/10/13 02:33:32;;;;;;;0.20;0.20;;;;;;;9.64;93.18;98391.38;5032057;28;20044;-71
2021/10/13 02:35:57;;;;;;;0.00;0.00;;;;;;;9.61;93.40;98395.41;5033578;28;20430;-72
2021/10/13 02:38:23;;;;;;;0.20;0.20;;;;;;;9.63;92.78;98397.78;5033483;28;20104;-71
2021/10/13 02:40:48;;;;;;;0.00;0.00;;;;;;;9.67;92.81;98406.84;5033328;28;20053;-72
2021/10/13 02:43:14;;;;;;;0.22;0.22;;;;;;;9.58;92.43;98393.28;5033121;28;20026;-75
2021/10/13 02:45:45;;;;;;;0.00;0.00;;;;;;;9.56;93.34;98390.13;5033965;28;20694;-75
2021/10/13 02:48:19;;;;;;;0.47;0.47;;;;;;;9.64;92.86;98396.72;5032946;28;20045;-72
2021/10/13 02:50:51;;;;;;;0.05;0.05;;;;;;;9.60;93.02;98394.59;5032005;28;20088;-72
2021/10/13 02:53:35;;;;;;;0.00;0.00;;;;;;;9.68;92.42;98416.41;5032777;28;20117;-73
2021/10/13 02:56:13;;;;;;;0.00;0.00;;;;;;;9.65;93.60;98417.00;5029846;28;20528;-73
2021/10/13 02:58:46;;;;;;;0.00;0.00;;;;;;;9.68;93.48;98429.75;5032693;28;20469;-73
2021/10/13 03:01:16;;;;;;;0.25;0.25;;;;;;;9.59;92.81;98406.38;5032693;28;20041;-72
2021/10/13 03:03:48;;;;;;;0.08;0.08;;;;;;;9.70;93.01;98430.28;5033489;28;20029;-73
2021/10/13 03:06:15;;;;;;;0.00;0.00;;;;;;;9.61;92.65;98417.53;5033177;28;20040;-73
2021/10/13 03:08:43;;;;;;;0.10;0.10;;;;;;;9.67;92.73;98422.84;5032900;28;20032;-74
2021/10/13 03:11:10;;;;;;;0.00;0.00;;;;;;;9.62;92.58;98418.38;5031748;28;20091;-75
2021/10/13 03:13:39;;;;;;;0.10;0.10;;;;;;;9.62;92.35;98418.38;5032256;28;20040;-75
2021/10/13 03:16:08;;;;;;;4.78;0.35;;;;;;;9.59;92.27;98421.59;5032011;28;20033;-72
2021/10/13 03:18:36;;;;;;;0.17;0.17;;;;;;;9.66;92.13;98432.72;5031497;28;20030;-73
2021/10/13 03:21:02;;;;;;;0.00;0.00;;;;;;;9.67;92.47;98431.66;5032116;28;20470;-72
2021/10/13 03:23:28;;;;;;;0.10;0.10;;;;;;;9.66;91.20;98431.94;5032561;28;20045;-74
2021/10/13 03:25:53;;;;;;;0.00;0.00;;;;;;;9.54;92.08;98418.97;5031043;28;20040;-73
2021/10/13 03:28:19;;;;;;;0.00;0.00;;;;;;;9.60;91.53;98426.63;5031714;28;20478;-72
2021/10/13 03:30:45;;;;;;;0.13;0.13;;;;;;;9.57;91.63;98423.75;5032039;28;20041;-71
2021/10/13 03:33:11;;;;;;;0.10;0.10;;;;;;;9.62;91.68;98434.38;5031432;28;20409;-71
2021/10/13 03:35:37;;;;;;;0.00;0.00;;;;;;;9.56;91.25;98428.28;5031107;28;20452;-71
2021/10/13 03:38:04;;;;;;;0.57;0.57;;;;;;;9.58;90.50;98434.16;5032302;28;20029;-74
2021/10/13 03:40:32;;;;;;;0.00;0.00;;;;;;;9.54;90.48;98430.44;5032632;28;20053;-75
2021/10/13 03:42:58;;;;;;;;;;;;;;;9.56;90.61;98430.19;5032388;28;20030;-74
2021/10/13 03:45:24;;;;;;;0.00;0.00;;;;;;;9.42;90.61;98412.19;5032080;28;19983;-73
2021/10/13 03:47:50;;;;;;;0.20;0.20;;;;;;;9.53;90.22;98428.88;5031977;28;20034;-73
2021/10/13 03:50:17;;;;;;;0.47;0.47;;;;;;;9.50;90.62;98434.78;5031920;28;20025;-72
2021/10/13 03:52:43;;;;;;;0.10;0.10;;;;;;;9.50;90.00;98434.78;5031581;28;20025;-69
2021/10/13 03:55:12;;;;;;;0.03;0.03;;;;;;;9.48;90.15;98441.47;5032009;28;20505;-71
2021/10/13 03:57:39;;;;;;;0.00;0.00;;;;;;;9.48;90.42;98441.47;5032171;28;20458;-73
2021/10/13 04:00:06;;;;;;;0.00;0.00;;;;;;;9.32;89.84;98416.81;5031403;28;20030;-73
2021/10/13 04:02:32;;;;;;;0.95;0.95;;;;;;;9.42;89.82;98441.53;5030796;28;20430;-74
2021/10/13 04:04:57;;;;;;;0.15;0.15;;;;;;;9.41;89.77;98449.81;5032170;28;20044;-72
2021/10/13 04:07:23;;;;;;;0.47;0.47;;;;;;;9.34;90.32;98441.34;5031182;28;20113;-74
2021/10/13 04:09:48;;;;;;;0.70;0.50;;;;;;;9.35;90.30;98442.91;5030643;28;20090;-74
2021/10/13 04:12:14;;;;;;;0.15;0.15;;;;;;;9.26;90.70;98438.22;5032463;28;20029;-73
2021/10/13 04:14:40;;;;;;;0.00;0.00;;;;;;;9.25;90.90;98443.81;5031874;28;20037;-73
2021/10/13 04:17:06;;;;;;;0.00;0.00;;;;;;;9.28;90.27;98448.59;5031453;28;20052;-72
2021/10/13 04:19:31;;;;;;;0.10;0.10;;;;;;;9.25;90.87;98452.63;5031635;28;20044;-73
2021/10/13 04:21:56;;;;;;;0.00;0.00;;;;;;;9.24;90.61;98453.72;5030457;28;20036;-73
2021/10/13 04:24:22;;;;;;;0.00;0.00;;;;;;;9.21;90.81;98456.94;5031556;28;20036;-81
2021/10/13 04:26:47;;;;;;;0.00;0.00;;;;;;;9.17;91.72;98457.75;5029284;28;20041;-75
2021/10/13 04:29:13;;;;;;;0.38;0.25;;;;;;;9.08;91.51;98449.56;5025779;28;20623;-74
2021/10/13 04:31:38;;;;;;;0.05;0.05;;;;;;;9.14;91.95;98464.47;5029645;28;20029;-75
2021/10/13 04:34:04;;;;;;;0.88;0.88;;;;;;;9.14;91.89;98467.13;5031990;28;20017;-75
2021/10/13 04:36:29;;;;;;;0.00;0.00;;;;;;;9.11;91.72;98465.81;5030436;28;20033;-75
2021/10/13 04:38:55;;;;;;;0.03;0.03;;;;;;;9.12;91.13;98479.97;5030305;28;20471;-75
2021/10/13 04:41:20;;;;;;;0.00;0.00;;;;;;;9.03;91.35;98466.41;5030150;28;20474;-75
2021/10/13 04:43:46;;;;;;;0.00;0.00;;;;;;;9.08;91.49;98477.06;5031407;28;20026;-74
2021/10/13 04:46:11;;;;;;;0.40;0.40;;;;;;;9.04;91.44;98489.34;5030310;28;20121;-75
2021/10/13 04:48:36;;;;;;;0.15;0.15;;;;;;;9.04;92.12;98492.00;5030143;28;20032;-75
2021/10/13 04:51:02;;;;;;;0.00;0.00;;;;;;;9.02;92.15;98504.84;5030278;28;20029;-75
2021/10/13 04:53:27;;;;;;;0.00;0.00;;;;;;;9.03;92.01;98500.31;5031625;28;20071;-75
2021/10/13 04:55:53;;;;;;;0.10;0.10;;;;;;;9.03;91.54;98500.31;5029940;28;20457;-75
2021/10/13 04:58:18;;;;;;;0.13;0.13;;;;;;;8.97;92.19;98497.69;5047056;28;20561;-75
2021/10/13 05:00:44;;;;;;;0.40;0.40;;;;;;;9.06;92.41;98505.09;5031363;28;20040;-75
2021/10/13 05:03:09;;;;;;;0.10;0.10;;;;;;;9.17;92.48;98516.47;5030200;28;20478;-75
2021/10/13 05:05:36;;;;;;;0.95;0.95;;;;;;;9.25;92.43;98510.53;5031070;28;20429;-75
2021/10/13 05:08:02;;;;;;;0.00;0.00;;;;;;;9.35;91.74;98521.13;5029835;28;20579;-75
2021/10/13 05:10:27;;;;;;;0.03;0.03;;;;;;;9.49;92.27;98523.13;5031199;28;20029;-75
2021/10/13 05:12:53;;;;;;;0.00;0.00;;;;;;;9.63;91.69;98532.09;5030875;28;20497;-75
2021/10/13 05:15:18;;;;;;;0.10;0.10;;;;;;;9.77;92.36;98524.19;5031286;28;20504;-75
2021/10/13 05:17:44;;;;;;;0.38;0.38;;;;;;;10.00;91.98;98537.84;5029493;28;20021;-75
2021/10/13 05:20:10;;;;;;;0.22;0.22;;;;;;;10.34;91.94;98542.22;5029855;28;20486;-75
2021/10/13 05:22:35;;;;;;;0.10;0.10;;;;;;;10.56;90.68;98537.19;5030828;28;20026;-75
2021/10/13 05:25:01;;;;;;;0.00;0.00;;;;;;;10.75;89.48;98522.22;5031169;28;20036;-75
2021/10/13 05:27:26;;;;;;;0.10;0.10;;;;;;;11.07;88.65;98542.88;5030798;28;20553;-75
2021/10/13 05:29:52;;;;;;;0.10;0.10;;;;;;;11.27;86.89;98549.78;5029444;28;20056;-75
2021/10/13 05:32:17;;;;;;;0.00;0.00;;;;;;;11.34;86.36;98541.41;5030655;28;20207;-75
2021/10/13 05:34:42;;;;;;;0.00;0.00;;;;;;;11.44;85.54;98541.22;5029480;28;20033;-75
2021/10/13 05:37:08;;;;;;;0.10;0.10;;;;;;;11.67;85.35;98536.78;5031118;28;20037;-75
2021/10/13 05:39:33;;;;;;;0.00;0.00;;;;;;;11.76;84.48;98544.94;5030379;28;20108;-74
2021/10/13 05:41:59;;;;;;;0.10;0.10;;;;;;;11.85;82.92;98540.50;5029306;28;20546;-74
2021/10/13 05:44:24;;;;;;;0.00;0.00;;;;;;;11.96;83.91;98538.44;5030814;28;20030;-74
2021/10/13 05:46:50;;;;;;;0.10;0.10;;;;;;;12.15;81.58;98553.63;5030728;28;20021;-74
2021/10/13 05:49:16;;;;;;;0.00;0.00;;;;;;;12.30;82.94;98558.69;5029683;28;20036;-74
2021/10/13 05:51:41;;;;;;;0.20;0.20;;;;;;;12.45;81.79;98570.19;5030455;28;20021;-74
2021/10/13 05:54:06;;;;;;;0.00;0.00;;;;;;;12.45;79.54;98568.31;5029422;28;20418;-73
2021/10/13 05:56:32;;;;;;;0.00;0.00;;;;;;;12.41;80.92;98561.16;5030911;28;20033;-75
2021/10/13 05:58:57;;;;;;;0.03;0.03;;;;;;;12.48;79.99;98564.22;5030506;28;20087;-74
2021/10/13 06:01:23;;;;;;;0.00;0.00;;;;;;;12.47;79.39;98566.13;5030349;28;20029;-76
2021/10/13 06:03:48;;;;;;;0.00;0.00;;;;;;;12.53;78.00;98576.75;5030099;28;20390;-73
2021/10/13 06:06:15;;;;;;;0.00;0.00;;;;;;;12.50;77.72;98578.16;5029489;28;20036;-74
2021/10/13 06:08:45;;;;;;;0.10;0.10;;;;;;;12.55;78.59;98596.00;5029252;28;20037;-76
2021/10/13 06:11:11;;;;;;;0.00;0.00;;;;;;;12.56;77.93;98598.41;5029082;28;20067;-74
2021/10/13 06:13:37;;;;;;;0.00;0.00;;;;;;;12.47;77.20;98609.03;5030483;28;20398;-76
2021/10/13 06:16:03;;;;;;;0.15;0.15;;;;;;;12.45;77.86;98616.59;5030226;28;20036;-76
2021/10/13 06:18:28;;;;;;;0.17;0.17;;;;;;;12.39;78.07;98609.72;5030496;28;20398;-73
2021/10/13 06:20:54;;;;;;;0.38;0.38;;;;;;;12.27;77.17;98607.53;5030136;28;20036;-74
2021/10/13 06:23:19;;;;;;;0.00;0.00;;;;;;;12.19;78.12;98613.59;5029097;28;20038;-74
2021/10/13 06:25:45;;;;;;;0.00;0.00;;;;;;;12.21;77.70;98624.81;5045374;28;20036;-74
2021/10/13 06:28:10;;;;;;;0.00;0.00;;;;;;;12.12;77.83;98626.59;5029168;28;20470;-75
2021/10/13 06:30:37;;;;;;;0.00;0.00;;;;;;;12.03;79.03;98623.78;5030634;28;20466;-75
2021/10/13 06:33:04;;;;;;;0.00;0.00;;;;;;;12.10;79.33;98632.25;5030412;28;20604;-74
2021/10/13 06:35:29;;;;;;;0.05;0.05;;;;;;;12.01;79.93;98634.00;5028973;28;20101;-75
2021/10/13 06:37:55;;;;;;;0.00;0.00;;;;;;;12.00;78.81;98643.16;5029831;28;20117;-75
2021/10/13 06:40:20;;;;;;;0.00;0.00;;;;;;;11.95;79.80;98637.84;5028697;28;20099;-75
2021/10/13 06:42:46;;;;;;;0.10;0.10;;;;;;;11.91;80.00;98626.13;5029768;28;20073;-75
2021/10/13 06:45:11;;;;;;;0.05;0.05;;;;;;;11.97;79.13;98646.41;5030525;28;20522;-76
2021/10/13 06:47:37;;;;;;;0.00;0.00;;;;;;;11.94;80.01;98642.41;5029912;28;20032;-75
2021/10/13 06:50:05;;;;;;;0.05;0.05;;;;;;;12.02;80.25;98646.31;5030730;28;20458;-75
2021/10/13 06:52:30;;;;;;;0.08;0.08;;;;;;;12.06;80.02;98657.25;5032385;28;20021;-75
2021/10/13 06:54:56;;;;;;;0.10;0.10;;;;;;;12.05;79.66;98647.63;5033799;28;20060;-75
2021/10/13 06:57:21;;;;;;;0.08;0.08;;;;;;;12.02;80.01;98643.66;5032413;28;20060;-75
2021/10/13 06:59:46;;;;;;;0.90;0.52;;;;;;;12.04;78.31;98648.72;5033186;28;20025;-75
2021/10/13 07:02:12;;;;;;;0.03;0.03;;;;;;;12.11;79.00;98671.38;5032278;28;20053;-75
2021/10/13 07:04:37;;;;;;;0.00;0.00;;;;;;;12.11;78.71;98667.91;5032336;28;20048;-75
2021/10/13 07:07:03;;;;;;;0.00;0.00;;;;;;;12.12;78.37;98672.97;5033309;28;20029;-75
2021/10/13 07:09:28;;;;;;;0.00;0.00;;;;;;;12.09;79.43;98660.13;5032197;28;20025;-75
2021/10/13 07:11:54;;;;;;;0.38;0.38;;;;;;;12.09;78.86;98664.72;5033296;28;20021;-75
2021/10/13 07:14:19;;;;;;;0.10;0.10;;;;;;;12.13;78.89;98668.38;5032300;28;20102;-75
2021/10/13 07:16:47;;;;;;;0.00;0.00;;;;;;;12.22;78.24;98674.66;5032157;28;20116;-76
2021/10/13 07:19:13;;;;;;;0.35;0.35;;;;;;;12.14;78.58;98684.16;5033511;28;20034;-75
2021/10/13 07:21:38;;;;;;;0.03;0.03;;;;;;;12.13;77.64;98676.44;5033440;28;20029;-76
2021/10/13 07:24:04;;;;;;;0.10;0.10;;;;;;;12.09;78.07;98676.22;5032920;28;20026;-76
2021/10/13 07:26:31;;;;;;;0.00;0.00;;;;;;;12.15;78.83;98688.44;5033588;28;20024;-75
2021/10/13 07:28:57;;;;;;;0.00;0.00;;;;;;;12.16;79.29;98684.69;5031753;28;20040;-76
2021/10/13 07:31:22;;;;;;;0.20;0.20;;;;;;;12.15;79.03;98693.81;5031755;28;20402;-75
2021/10/13 07:33:48;;;;;;;0.38;0.38;;;;;;;12.10;78.75;98682.38;5033250;28;20029;-76
2021/10/13 07:36:13;;;;;;;0.00;0.00;;;;;;;12.13;79.52;98696.00;5033175;28;20112;-76
2021/10/13 07:38:41;;;;;;;0.32;0.32;;;;;;;12.13;78.98;98703.22;5031906;28;20025;-76
2021/10/13 07:41:06;;;;;;;0.00;0.00;;;;;;;12.13;79.10;98700.56;5032879;28;20048;-76
2021/10/13 07:43:33;;;;;;;0.10;0.10;;;;;;;12.07;79.25;98689.13;5031682;28;20407;-76
2021/10/13 07:45:58;;;;;;;0.00;0.00;;;;;;;12.11;78.50;98698.16;5031410;28;20102;-76
2021/10/13 07:48:25;;;;;;;0.20;0.20;;;;;;;12.07;78.52;98691.00;5031648;28;20053;-75
2021/10/13 07:50:52;;;;;;;0.10;0.10;;;;;;;12.10;79.22;98706.50;5031129;28;20550;-75
2021/10/13 07:53:17;;;;;;;0.10;0.10;;;;;;;12.07;79.78;98699.84;5032729;28;20493;-76
2021/10/13 07:55:43;;;;;;;0.00;0.00;;;;;;;12.12;79.72;98701.63;5032956;28;20025;-76
2021/10/13 07:58:08;;;;;;;0.10;0.10;;;;;;;12.15;79.36;98709.88;5032642;28;20033;-76
2021/10/13 08:00:34;;;;;;;0.00;0.00;;;;;;;12.19;77.56;98723.50;5031997;28;20501;-75
2021/10/13 08:02:59;;;;;;;0.00;0.00;;;;;;;12.15;76.13;98717.94;5031053;28;20056;-76
2021/10/13 08:05:24;;;;;;;0.00;0.00;;;;;;;12.13;75.83;98712.09;5032357;28;20095;-76
2021/10/13 08:07:50;;;;;;;0.10;0.10;;;;;;;12.18;75.53;98711.19;5032537;28;20025;-73
2021/10/13 08:10:16;;;;;;;0.10;0.10;;;;;;;12.17;74.58;98720.34;5031165;28;20117;-76
2021/10/13 08:12:41;;;;;;;0.20;0.20;;;;;;;12.18;73.20;98719.22;5030960;28;20124;-76
2021/10/13 08:15:07;;;;;;;0.10;0.10;;;;;;;12.17;73.95;98723.03;5031778;28;20026;-76
2021/10/13 08:17:33;;;;;;;0.00;0.00;;;;;;;12.15;73.73;98709.88;5030977;28;20125;-76
2021/10/13 08:20:00;;;;;;;0.05;0.05;;;;;;;12.09;73.58;98704.91;5030419;28;20104;-76
2021/10/13 08:22:26;;;;;;;0.08;0.08;;;;;;;12.12;74.45;98709.69;5030929;28;20036;-76
2021/10/13 08:24:51;;;;;;;0.65;0.65;;;;;;;12.05;73.94;98711.94;5030626;28;20033;-75
2021/10/13 08:27:17;;;;;;;0.00;0.00;;;;;;;12.12;73.88;98712.34;5031812;28;20021;-76
2021/10/13 08:29:42;;;;;;;0.10;0.10;;;;;;;12.11;74.47;98716.16;5031664;28;20033;-76
2021/10/13 08:32:07;;;;;;;0.10;0.10;;;;;;;12.10;73.53;98709.97;5030286;28;20083;-75
2021/10/13 08:34:33;;;;;;;0.43;0.43;;;;;;;12.12;71.52;98715.84;5032224;28;20478;-76
2021/10/13 08:36:58;;;;;;;0.00;0.00;;;;;;;12.06;72.21;98713.53;5031447;28;20444;-75
2021/10/13 08:39:24;;;;;;;0.35;0.35;;;;;;;12.09;72.39;98718.31;5031907;28;20025;-76
2021/10/13 08:41:49;;;;;;;0.38;0.38;;;;;;;12.08;72.19;98719.41;5031808;28;20029;-76
2021/10/13 08:44:15;;;;;;;0.00;0.00;;;;;;;12.08;72.14;98719.41;5031312;28;20036;-76
2021/10/13 08:46:41;;;;;;;0.28;0.28;;;;;;;12.13;72.77;98732.72;5031644;28;20379;-76
2021/10/13 08:49:07;;;;;;;0.10;0.10;;;;;;;12.15;71.94;98730.56;5046872;28;20033;-76
2021/10/13 08:51:34;;;;;;;0.10;0.10;;;;;;;12.16;72.84;98732.94;5030184;28;20029;-76
2021/10/13 08:53:59;;;;;;;0.63;0.63;;;;;;;12.16;72.98;98730.25;5031093;28;20025;-76
2021/10/13 08:56:25;;;;;;;0.00;0.00;;;;;;;12.08;73.12;98722.88;5031825;28;20351;-76
2021/10/13 08:58:50;;;;;;;0.32;0.32;;;;;;;12.18;72.57;98732.63;5031753;28;20091;-76
2021/10/13 09:01:15;;;;;;;1.55;1.35;;;;;;;12.17;73.21;98728.38;5029895;28;20036;-76
2021/10/13 09:03:48;;;;;;;0.22;0.22;;;;;;;12.22;73.59;98727.47;5030141;28;20029;-76
2021/10/13 09:06:23;;;;;;;0.00;0.00;;;;;;;11.99;72.93;98697.84;5030892;28;20028;-76
2021/10/13 09:09:05;;;;;;;0.00;0.00;;;;;;;12.26;73.46;98731.19;5031316;28;20030;-76
2021/10/13 09:11:31;;;;;;;0.20;0.20;;;;;;;12.26;73.93;98739.22;5029910;28;20029;-76
2021/10/13 09:14:14;;;;;;;0.10;0.10;;;;;;;12.25;73.22;98737.63;5030416;28;20372;-76
2021/10/13 09:16:53;;;;;;;0.98;0.88;;;;;;;12.30;73.17;98738.34;5029856;28;20052;-75
2021/10/13 09:19:20;;;;;;;0.32;0.32;;;;;;;12.27;72.96;98736.22;5029891;28;20405;-75
2021/10/13 09:22:20;;;;;;;0.00;0.00;;;;;;;12.31;71.49;98737.22;5030875;28;20033;-75
2021/10/13 09:24:47;;;;;;;0.30;0.30;;;;;;;12.35;70.42;98736.66;5029788;28;20037;-75
2021/10/13 09:27:25;;;;;;;0.17;0.17;;;;;;;12.39;70.88;98734.97;5029579;28;20025;-75
2021/10/13 09:29:58;;;;;;;0.45;0.45;;;;;;;12.39;69.98;98729.59;5029484;28;20323;-76
2021/10/13 09:32:26;;;;;;;0.32;0.32;;;;;;;12.37;69.82;98721.06;5030688;28;20029;-75
2021/10/13 09:34:54;;;;;;;0.47;0.47;;;;;;;12.48;69.77;98733.19;5030875;28;20112;-76
2021/10/13 09:37:20;;;;;;;0.35;0.35;;;;;;;12.52;69.28;98738.75;5030956;28;20029;-75
2021/10/13 09:40:04;;;;;;;0.28;0.28;;;;;;;12.57;69.62;98734.13;5030570;28;20124;-75
2021/10/13 09:42:38;;;;;;;0.00;0.00;;;;;;;12.65;69.90;98738.75;5029550;28;20120;-75
2021/10/13 09:45:05;;;;;;;0.45;0.45;;;;;;;12.64;68.57;98737.16;5030200;28;20049;-75
2021/10/13 09:47:35;;;;;;;0.40;0.40;;;;;;;12.68;68.94;98741.97;5029439;28;20490;-75
2021/10/13 09:50:07;;;;;;;0.10;0.10;;;;;;;12.63;68.63;98727.56;5030293;28;20029;-75
2021/10/13 09:52:32;;;;;;;0.00;0.00;;;;;;;12.74;67.89;98746.13;5030484;28;20030;-75
2021/10/13 09:55:02;;;;;;;0.20;0.20;;;;;;;12.78;67.92;98750.59;5030248;28;20033;-76
2021/10/13 09:57:29;;;;;;;0.15;0.15;;;;;;;12.78;68.71;98755.97;5030481;28;20021;-76
2021/10/13 10:00:31;;;;;;;0.20;0.20;;;;;;;12.77;68.17;98753.59;5030488;28;20032;-76
2021/10/13 10:02:58;;;;;;;0.00;0.00;;;;;;;12.78;69.19;98750.59;5007445;28;20067;-74
2021/10/13 10:05:29;;;;;;;0.08;0.08;;;;;;;12.81;68.68;98750.00;5029389;28;20030;-74
2021/10/13 10:08:03;;;;;;;0.00;0.00;;;;;;;12.79;68.91;98749.53;5029201;28;20056;-74
2021/10/13 10:10:29;;;;;;;0.10;0.10;;;;;;;12.79;68.64;98751.41;5030331;28;20395;-76
2021/10/13 10:12:57;;;;;;;0.10;0.10;;;;;;;12.83;68.66;98757.78;5030461;28;20029;-76
2021/10/13 10:15:41;;;;;;;0.10;0.10;;;;;;;12.85;68.97;98758.25;5030591;28;20429;-75
2021/10/13 10:18:32;;;;;;;0.52;0.52;;;;;;;12.87;69.29;98761.44;5029015;28;20102;-76
2021/10/13 10:21:23;;;;;;;0.00;0.00;;;;;;;12.91;69.00;98753.59;5029045;28;20029;-76
2021/10/13 10:23:49;;;;;;;0.10;0.10;;;;;;;12.84;68.84;98740.59;5029745;28;20032;-76
2021/10/13 10:26:27;;;;;;;0.03;0.03;;;;;;;12.96;68.79;98758.84;5032900;28;20091;-76
2021/10/13 10:28:52;;;;;;;0.03;0.03;;;;;;;12.96;68.79;98756.97;5032712;28;20498;-76
2021/10/13 10:31:27;;;;;;;0.20;0.20;;;;;;;13.00;68.35;98762.53;5031868;28;20037;-75
2021/10/13 10:34:13;;;;;;;0.00;0.00;;;;;;;13.06;67.96;98761.34;5032888;28;20035;-76
2021/10/13 10:36:38;;;;;;;0.20;0.20;;;;;;;13.09;67.83;98752.69;5034090;28;20393;-76
2021/10/13 10:39:07;;;;;;;0.08;0.08;;;;;;;13.06;67.22;98739.06;5032663;28;20120;-76
2021/10/13 10:41:55;;;;;;;0.00;0.00;;;;;;;13.16;66.55;98754.97;5034231;28;20052;-76
2021/10/13 10:44:41;;;;;;;1.88;0.55;;;;;;;13.23;67.55;98749.19;5049080;28;20043;-76
2021/10/13 10:47:17;;;;;;;0.43;0.43;;;;;;;13.25;65.86;98755.84;5033888;28;20079;-76
2021/10/13 10:49:55;;;;;;;0.10;0.10;;;;;;;13.31;66.32;98761.91;5034064;28;20030;-76
2021/10/13 10:52:23;;;;;;;0.03;0.03;;;;;;;13.33;65.28;98758.91;5033484;28;20036;-75
2021/10/13 10:55:08;;;;;;;0.10;0.10;;;;;;;13.36;64.46;98764.50;5032571;28;20493;-76
2021/10/13 10:57:36;;;;;;;0.17;0.17;;;;;;;13.39;65.00;98771.19;5033697;28;20159;-75
2021/10/13 11:00:07;;;;;;;0.00;0.00;;;;;;;13.37;64.19;98765.28;5033313;28;20021;-76
2021/10/13 11:02:33;;;;;;;0.13;0.13;;;;;;;13.35;64.63;98762.09;5033759;28;20037;-75
2021/10/13 11:05:09;;;;;;;0.20;0.20;;;;;;;13.38;64.24;98764.25;5033230;28;20032;-76
2021/10/13 11:07:36;;;;;;;0.00;0.00;;;;;;;13.18;64.16;98730.50;5033968;28;20036;-76
2021/10/13 11:10:10;;;;;;;0.10;0.10;;;;;;;13.34;64.78;98749.78;5032044;28;20505;-76
2021/10/13 11:12:47;;;;;;;0.35;0.35;;;;;;;13.42;64.66;98760.63;5033520;28;20028;-76
2021/10/13 11:15:13;;;;;;;0.05;0.05;;;;;;;13.39;65.10;98757.75;5031958;28;20030;-76
2021/10/13 11:17:39;;;;;;;0.10;0.10;;;;;;;13.43;64.95;98759.53;5033634;28;20051;-75
2021/10/13 11:20:13;;;;;;;0.10;0.10;;;;;;;13.47;65.33;98765.09;5031912;28;20104;-76
2021/10/13 11:22:39;;;;;;;0.00;0.00;;;;;;;13.40;64.04;98753.97;5031783;28;20037;-75
2021/10/13 11:25:19;;;;;;;0.15;0.15;;;;;;;13.41;64.58;98755.56;5031450;28;20410;-75
2021/10/13 11:28:16;;;;;;;0.08;0.08;;;;;;;13.50;64.35;98763.69;5031887;28;20025;-75
2021/10/13 11:30:47;;;;;;;0.10;0.10;;;;;;;13.43;65.01;98756.84;5020379;28;20052;-75
2021/10/13 11:33:16;;;;;;;0.00;0.00;;;;;;;13.42;63.98;98755.25;5032851;28;20034;-75
2021/10/13 11:35:44;;;;;;;0.05;0.05;;;;;;;13.49;65.62;98764.78;5031062;28;20563;-75
2021/10/13 11:38:15;;;;;;;0.43;0.43;;;;;;;13.54;65.19;98767.38;5031446;28;20390;-75
2021/10/13 11:40:41;;;;;;;0.00;0.00;;;;;;;13.52;65.35;98767.66;5032923;28;20041;-75
2021/10/13 11:43:10;;;;;;;0.73;0.73;;;;;;;13.54;64.66;98768.16;5032707;28;20072;-75